Time;durP1;ratioP1;P1;durP2;ratioP2;P2;SDS_P1;SDS_P2;PMS_P1;PMS_P2;Temp;Humidity;BMP_temperature;BMP_pressure;BME280_temperature;BME280_humidity;BME280_pressure;Samples;Min_cycle;Max_cycle;Signal;HPM_P1;HPM_P2
2021/08/11 00:01:00;;;;;;;27.70;19.08;;;;;;;;;;2073222;28;20169;-50
2021/08/11 00:02:00;;;;;;;24.17;17.73;;;;;;;;;;2076120;28;20185;-51
2021/08/11 00:03:01;;;;;;;28.10;18.60;;;;;;;;;;2088086;28;20258;-49
2021/08/11 00:04:01;;;;;;;31.13;20.13;;;;;;;;;;2084947;28;20202;-52
2021/08/11 00:05:02;;;;;;;28.23;21.10;;;;;;;;;;2081079;28;20251;-51
2021/08/11 00:06:02;;;;;;;28.55;20.67;;;;;;;;;;2076691;28;20216;-49
2021/08/11 00:07:02;;;;;;;32.78;22.58;;;;;;;;;;2086627;28;20583;-51
2021/08/11 00:08:03;;;;;;;29.83;22.15;;;;;;;;;;2087254;28;20178;-52
2021/08/11 00:09:03;;;;;;;28.98;21.25;;;;;;;;;;2081163;28;20181;-50
2021/08/11 00:10:04;;;;;;;27.85;20.58;;;;;;;;;;2083639;28;20199;-50
2021/08/11 00:11:04;;;;;;;28.50;20.77;;;;;;;;;;2086513;28;20175;-50
2021/08/11 00:12:05;;;;;;;30.77;20.42;;;;;;;;;;2084351;28;20182;-52
2021/08/11 00:13:05;;;;;;;28.08;20.88;;;;;;;;;;2088554;28;20215;-49
2021/08/11 00:14:05;;;;;;;24.48;20.42;;;;;;;;;;2075459;28;20172;-49
2021/08/11 00:15:06;;;;;;;28.40;20.63;;;;;;;;;;2072631;28;20181;-49
2021/08/11 00:16:06;;;;;;;27.48;20.08;;;;;;;;;;2081549;28;20231;-48
2021/08/11 00:17:07;;;;;;;32.92;21.48;;;;;;;;;;2080835;28;20168;-49
2021/08/11 00:18:07;;;;;;;25.88;18.75;;;;;;;;;;2083739;28;20176;-48
2021/08/11 00:19:07;;;;;;;27.17;19.20;;;;;;;;;;2086661;28;20172;-50
2021/08/11 00:20:08;;;;;;;27.25;19.38;;;;;;;;;;2084921;28;20172;-50
2021/08/11 00:21:08;;;;;;;27.33;19.27;;;;;;;;;;2086248;28;20168;-49
2021/08/11 00:22:08;;;;;;;27.48;18.63;;;;;;;;;;2088885;28;20198;-48
2021/08/11 00:23:09;;;;;;;28.77;19.15;;;;;;;;;;2085759;28;20168;-49
2021/08/11 00:24:09;;;;;;;29.15;18.92;;;;;;;;;;2081464;28;20175;-49
2021/08/11 00:25:10;;;;;;;29.63;19.75;;;;;;;;;;2084671;28;20270;-49
2021/08/11 00:26:11;;;;;;;26.23;18.73;;;;;;;;;;2086321;28;20210;-50
2021/08/11 00:27:11;;;;;;;23.52;18.10;;;;;;;;;;2075567;28;20176;-50
2021/08/11 00:28:11;;;;;;;24.77;17.95;;;;;;;;;;2077485;28;20234;-50
2021/08/11 00:29:11;;;;;;;27.95;19.58;;;;;;;;;;2075627;28;20351;-50
2021/08/11 00:30:12;;;;;;;25.45;18.83;;;;;;;;;;2068270;28;20649;-51
2021/08/11 00:31:13;;;;;;;29.17;19.50;;;;;;;;;;2068792;28;20185;-49
2021/08/11 00:32:14;;;;;;;29.88;20.27;;;;;;;;;;2080214;28;20606;-51
2021/08/11 00:33:15;;;;;;;26.25;18.48;;;;;;;;;;2064327;28;20225;-53
2021/08/11 00:34:17;;;;;;;37.22;22.05;;;;;;;;;;2064865;28;20753;-51
2021/08/11 00:35:17;;;;;;;27.73;21.27;;;;;;;;;;2063340;28;20169;-49
2021/08/11 00:36:18;;;;;;;28.23;19.00;;;;;;;;;;2060879;28;20212;-51
2021/08/11 00:37:19;;;;;;;29.77;20.58;;;;;;;;;;2071999;28;20267;-49
2021/08/11 00:38:22;;;;;;;28.25;19.75;;;;;;;;;;2066990;28;20244;-50
2021/08/11 00:39:24;;;;;;;29.52;19.63;;;;;;;;;;2067534;28;20165;-48
2021/08/11 00:40:26;;;;;;;25.13;17.55;;;;;;;;;;2072523;28;20205;-47
2021/08/11 00:41:27;;;;;;;29.10;19.15;;;;;;;;;;2068555;28;20196;-52
2021/08/11 00:42:27;;;;;;;25.65;18.02;;;;;;;;;;2079980;28;20172;-49
2021/08/11 00:43:28;;;;;;;28.15;18.85;;;;;;;;;;2072313;28;20646;-50
2021/08/11 00:44:29;;;;;;;26.45;18.85;;;;;;;;;;2066758;28;20264;-49
2021/08/11 00:45:29;;;;;;;24.45;19.00;;;;;;;;;;2070467;28;20165;-50
2021/08/11 00:46:31;;;;;;;27.15;19.27;;;;;;;;;;2065950;28;20189;-49
2021/08/11 00:47:33;;;;;;;28.63;19.80;;;;;;;;;;2065762;28;20189;-50
2021/08/11 00:48:35;;;;;;;30.27;20.52;;;;;;;;;;2071651;28;20705;-51
2021/08/11 00:49:39;;;;;;;33.45;21.88;;;;;;;;;;2068324;28;20232;-51
2021/08/11 00:50:43;;;;;;;29.50;20.33;;;;;;;;;;2065128;28;20547;-50
2021/08/11 00:51:45;;;;;;;28.05;19.58;;;;;;;;;;2064438;28;20169;-48
2021/08/11 00:52:47;;;;;;;25.15;19.42;;;;;;;;;;2057159;28;20178;-48
2021/08/11 00:53:50;;;;;;;30.40;20.73;;;;;;;;;;2065020;28;20349;-49
2021/08/11 00:54:55;;;;;;;33.28;20.90;;;;;;;;;;2078638;28;20579;-49
2021/08/11 00:55:57;;;;;;;29.42;21.00;;;;;;;;;;2071521;28;20287;-49
2021/08/11 00:56:58;;;;;;;30.75;21.45;;;;;;;;;;2065891;28;20177;-48
2021/08/11 00:57:59;;;;;;;32.28;22.00;;;;;;;;;;2070973;28;20208;-52
2021/08/11 00:59:07;;;;;;;31.10;20.25;;;;;;;;;;2054980;28;20235;-52
2021/08/11 01:00:08;;;;;;;28.27;19.67;;;;;;;;;;2060802;28;20534;-51
2021/08/11 01:01:11;;;;;;;30.92;21.13;;;;;;;;;;2071496;28;20179;-48
2021/08/11 01:02:13;;;;;;;29.17;20.25;;;;;;;;;;2075114;28;20180;-53
2021/08/11 01:03:16;;;;;;;31.92;20.42;;;;;;;;;;2069584;28;20195;-49
2021/08/11 01:04:17;;;;;;;28.27;18.65;;;;;;;;;;2068731;28;20166;-51
2021/08/11 01:05:19;;;;;;;25.90;17.35;;;;;;;;;;2075140;28;20160;-52
2021/08/11 01:06:19;;;;;;;22.50;17.33;;;;;;;;;;2079109;28;20200;-52
2021/08/11 01:07:21;;;;;;;23.65;17.38;;;;;;;;;;2067571;28;20556;-49
2021/08/11 01:08:22;;;;;;;26.75;18.83;;;;;;;;;;2070477;28;20176;-48
2021/08/11 01:09:24;;;;;;;27.27;18.80;;;;;;;;;;2058303;28;20182;-50
2021/08/11 01:10:29;;;;;;;30.65;20.25;;;;;;;;;;2064725;28;20217;-53
2021/08/11 01:11:31;;;;;;;29.33;20.23;;;;;;;;;;2063675;28;20201;-50
2021/08/11 01:12:31;;;;;;;26.08;19.05;;;;;;;;;;2066442;28;20198;-50
2021/08/11 01:13:32;;;;;;;24.13;17.60;;;;;;;;;;2064209;28;20180;-49
2021/08/11 01:14:33;;;;;;;23.80;17.75;;;;;;;;;;2067271;28;20169;-48
2021/08/11 01:15:38;;;;;;;30.58;18.95;;;;;;;;;;2071590;28;20172;-49
2021/08/11 01:16:40;;;;;;;25.23;18.30;;;;;;;;;;2064083;28;20178;-50
2021/08/11 01:17:40;;;;;;;21.95;17.20;;;;;;;;;;2056773;28;20690;-50
2021/08/11 01:18:40;;;;;;;24.55;18.00;;;;;;;;;;2069608;28;20229;-50
2021/08/11 01:19:41;;;;;;;27.13;17.17;;;;;;;;;;2075087;28;20535;-49
2021/08/11 01:20:56;;;;;;;24.05;17.70;;;;;;;;;;2069692;28;20571;-53
2021/08/11 01:22:01;;;;;;;26.42;18.73;;;;;;;;;;2075863;28;20187;-50
2021/08/11 01:23:07;;;;;;;24.60;18.80;;;;;;;;;;2080637;28;20168;-51
2021/08/11 01:24:15;;;;;;;26.90;18.00;;;;;;;;;;2077831;28;20165;-50
2021/08/11 01:25:22;;;;;;;25.02;18.45;;;;;;;;;;2073374;28;20227;-50
2021/08/11 01:27:30;;;;;;;23.25;17.55;;;;;;;;;;2091458;28;20214;-54
2021/08/11 01:28:46;;;;;;;27.10;18.60;;;;;;;;;;2086786;28;20875;-56
2021/08/11 01:30:01;;;;;;;27.13;18.42;;;;;;;;;;2079931;28;20627;-55
2021/08/11 01:31:12;;;;;;;21.90;16.88;;;;;;;;;;2087789;28;20210;-58
2021/08/11 01:32:21;;;;;;;26.35;18.52;;;;;;;;;;2084064;28;20171;-52
2021/08/11 01:33:26;;;;;;;28.52;19.73;;;;;;;;;;2080203;28;20570;-54
2021/08/11 01:34:31;;;;;;;24.25;18.50;;;;;;;;;;2075632;28;20185;-54
2021/08/11 01:35:36;;;;;;;26.45;18.63;;;;;;;;;;2086194;28;20167;-54
2021/08/11 01:36:46;;;;;;;23.40;18.08;;;;;;;;;;2086351;28;20572;-55
2021/08/11 01:37:50;;;;;;;27.25;17.60;;;;;;;;;;2073592;28;20669;-54
2021/08/11 01:38:55;;;;;;;29.52;19.45;;;;;;;;;;2073395;28;20169;-55
2021/08/11 01:39:57;;;;;;;26.33;18.25;;;;;;;;;;2082747;28;20172;-56
2021/08/11 01:41:04;;;;;;;26.58;18.55;;;;;;;;;;2085287;28;20657;-56
2021/08/11 01:42:06;;;;;;;29.38;19.65;;;;;;;;;;2083817;28;20617;-55
2021/08/11 01:43:07;;;;;;;29.65;19.70;;;;;;;;;;2093139;28;20208;-51
2021/08/11 01:44:10;;;;;;;29.48;19.88;;;;;;;;;;2077774;28;20180;-52
2021/08/11 01:45:13;;;;;;;28.52;20.23;;;;;;;;;;2076731;28;20294;-57
2021/08/11 01:46:17;;;;;;;29.77;20.40;;;;;;;;;;2085750;28;20246;-57
2021/08/11 01:47:23;;;;;;;33.45;21.45;;;;;;;;;;2090241;28;20240;-57
2021/08/11 01:48:27;;;;;;;33.90;22.42;;;;;;;;;;2087101;28;20194;-57
2021/08/11 01:49:32;;;;;;;31.70;20.77;;;;;;;;;;2088834;28;20222;-56
2021/08/11 01:50:36;;;;;;;26.73;19.25;;;;;;;;;;2071589;28;20177;-57
2021/08/11 01:51:37;;;;;;;29.65;19.80;;;;;;;;;;2078021;28;20613;-54
2021/08/11 01:52:43;;;;;;;31.88;20.25;;;;;;;;;;2080550;28;20542;-53
2021/08/11 01:53:44;;;;;;;29.67;18.95;;;;;;;;;;2074833;28;20734;-54
2021/08/11 01:54:48;;;;;;;24.67;18.05;;;;;;;;;;2081793;28;20172;-57
2021/08/11 01:55:49;;;;;;;25.27;18.38;;;;;;;;;;2095458;28;20261;-53
2021/08/11 01:56:50;;;;;;;24.92;17.67;;;;;;;;;;2097397;28;20286;-55
2021/08/11 01:57:51;;;;;;;22.95;16.67;;;;;;;;;;2082259;28;20168;-57
2021/08/11 01:58:56;;;;;;;24.27;16.50;;;;;;;;;;2086128;28;20640;-56
2021/08/11 01:59:58;;;;;;;21.60;15.95;;;;;;;;;;2080664;28;20176;-59
2021/08/11 02:01:01;;;;;;;22.00;15.20;;;;;;;;;;2085563;28;20167;-57
2021/08/11 02:02:03;;;;;;;20.80;14.70;;;;;;;;;;2078225;28;20173;-53
2021/08/11 02:03:05;;;;;;;22.17;16.08;;;;;;;;;;2086021;28;20225;-57
2021/08/11 02:04:06;;;;;;;23.27;16.23;;;;;;;;;;2093463;28;20171;-56
2021/08/11 02:05:08;;;;;;;21.98;15.88;;;;;;;;;;2097390;28;20177;-55
2021/08/11 02:06:09;;;;;;;20.50;15.07;;;;;;;;;;2094286;28;20266;-54
2021/08/11 02:07:11;;;;;;;23.38;15.38;;;;;;;;;;2090446;28;20861;-53
2021/08/11 02:08:13;;;;;;;19.02;14.57;;;;;;;;;;2093456;28;20198;-53
2021/08/11 02:09:16;;;;;;;26.40;16.50;;;;;;;;;;2092819;28;20178;-53
2021/08/11 02:10:17;;;;;;;20.60;15.40;;;;;;;;;;2091941;28;20700;-53
2021/08/11 02:11:18;;;;;;;22.67;16.83;;;;;;;;;;2083099;28;20935;-56
2021/08/11 02:12:19;;;;;;;21.20;15.30;;;;;;;;;;2067087;28;20177;-54
2021/08/11 02:13:20;;;;;;;24.75;17.55;;;;;;;;;;2073736;28;20320;-52
2021/08/11 02:14:21;;;;;;;20.70;16.50;;;;;;;;;;2082007;28;20180;-53
2021/08/11 02:15:22;;;;;;;20.88;16.38;;;;;;;;;;2081972;28;20255;-50
2021/08/11 02:16:22;;;;;;;21.67;16.27;;;;;;;;;;2081969;28;20223;-53
2021/08/11 02:17:23;;;;;;;24.48;18.17;;;;;;;;;;2081704;28;20196;-57
2021/08/11 02:18:24;;;;;;;23.77;18.58;;;;;;;;;;2080357;28;20164;-49
2021/08/11 02:19:28;;;;;;;26.08;18.13;;;;;;;;;;2074205;28;20172;-55
2021/08/11 02:20:29;;;;;;;28.08;18.60;;;;;;;;;;2067373;28;20265;-53
2021/08/11 02:21:33;;;;;;;23.95;16.50;;;;;;;;;;2073699;28;20172;-56
2021/08/11 02:22:33;;;;;;;24.20;18.23;;;;;;;;;;2073719;28;20173;-56
2021/08/11 02:23:34;;;;;;;25.20;16.48;;;;;;;;;;2074839;28;20176;-55
2021/08/11 02:24:35;;;;;;;23.55;16.30;;;;;;;;;;2089934;28;20254;-56
2021/08/11 02:25:44;;;;;;;22.38;16.15;;;;;;;;;;2082079;28;20191;-55
2021/08/11 02:26:50;;;;;;;24.23;17.00;;;;;;;;;;2082695;28;20168;-51
2021/08/11 02:27:53;;;;;;;25.52;17.27;;;;;;;;;;2082613;28;20179;-51
2021/08/11 02:29:27;;;;;;;25.15;17.00;;;;;;;;;;2074124;28;20181;-55
2021/08/11 02:30:33;;;;;;;24.55;15.50;;;;;;;;;;2057734;28;20254;-59
2021/08/11 02:31:52;;;;;;;22.65;16.05;;;;;;;;;;2073253;28;20614;-55
2021/08/11 02:32:53;;;;;;;24.52;15.43;;;;;;;;;;2077034;28;20176;-55
2021/08/11 02:34:01;;;;;;;21.05;16.52;;;;;;;;;;2075003;28;20196;-54
2021/08/11 02:35:26;;;;;;;24.42;16.35;;;;;;;;;;2085606;28;20226;-55
2021/08/11 02:36:29;;;;;;;23.50;16.83;;;;;;;;;;2090766;28;20198;-54
2021/08/11 02:37:48;;;;;;;24.77;17.08;;;;;;;;;;2087784;28;20213;-53
2021/08/11 02:38:50;;;;;;;24.10;16.85;;;;;;;;;;2076319;28;20183;-53
2021/08/11 02:39:52;;;;;;;25.60;19.00;;;;;;;;;;2080778;28;20892;-50
2021/08/11 02:41:09;;;;;;;28.73;19.35;;;;;;;;;;2088798;28;20270;-48
2021/08/11 02:42:13;;;;;;;31.15;19.38;;;;;;;;;;2092679;28;20174;-55
2021/08/11 02:43:19;;;;;;;29.75;19.17;;;;;;;;;;2094900;28;20266;-56
2021/08/11 02:44:25;;;;;;;28.08;18.52;;;;;;;;;;2087567;28;20167;-54
2021/08/11 02:45:26;;;;;;;30.08;19.80;;;;;;;;;;2082349;28;20211;-52
2021/08/11 02:46:27;;;;;;;32.90;19.35;;;;;;;;;;2072912;28;20169;-52
2021/08/11 02:47:33;;;;;;;29.33;18.85;;;;;;;;;;2073534;28;20200;-53
2021/08/11 02:48:34;;;;;;;30.92;19.95;;;;;;;;;;2082254;28;20172;-49
2021/08/11 02:49:36;;;;;;;25.73;17.95;;;;;;;;;;2073706;28;20208;-53
2021/08/11 02:50:40;;;;;;;25.45;17.23;;;;;;;;;;2073250;28;20212;-52
2021/08/11 02:51:41;;;;;;;27.17;17.38;;;;;;;;;;2081262;28;20184;-54
2021/08/11 02:52:43;;;;;;;29.13;18.48;;;;;;;;;;2089933;28;20226;-49
2021/08/11 02:53:44;;;;;;;31.40;21.08;;;;;;;;;;2081825;28;20188;-53
2021/08/11 02:54:45;;;;;;;33.95;22.40;;;;;;;;;;2081766;28;20665;-51
2021/08/11 02:55:45;;;;;;;32.83;20.52;;;;;;;;;;2081570;28;20180;-52
2021/08/11 02:56:47;;;;;;;33.70;22.33;;;;;;;;;;2081470;28;20227;-52
2021/08/11 02:57:49;;;;;;;35.30;22.17;;;;;;;;;;2073737;28;20558;-54
2021/08/11 02:58:49;;;;;;;33.35;22.25;;;;;;;;;;2081694;28;20168;-52
2021/08/11 02:59:50;;;;;;;37.30;22.27;;;;;;;;;;2081994;28;20164;-50
2021/08/11 03:00:50;;;;;;;41.13;23.45;;;;;;;;;;2081584;28;20172;-54
2021/08/11 03:01:51;;;;;;;38.22;22.08;;;;;;;;;;2081168;28;20176;-50
2021/08/11 03:02:52;;;;;;;38.80;22.73;;;;;;;;;;2073830;28;20181;-54
2021/08/11 03:03:54;;;;;;;47.47;24.52;;;;;;;;;;2090008;28;20225;-55
2021/08/11 03:04:55;;;;;;;53.72;27.05;;;;;;;;;;2081523;28;20173;-57
2021/08/11 03:05:56;;;;;;;43.13;23.80;;;;;;;;;;2090186;28;20180;-55
2021/08/11 03:06:56;;;;;;;51.78;24.92;;;;;;;;;;2087898;28;20199;-56
2021/08/11 03:07:57;;;;;;;43.17;24.38;;;;;;;;;;2081364;28;20187;-53
2021/08/11 03:08:57;;;;;;;41.38;24.27;;;;;;;;;;2081501;28;20801;-55
2021/08/11 03:09:58;;;;;;;59.03;26.55;;;;;;;;;;2088145;28;20176;-57
2021/08/11 03:10:58;;;;;;;74.53;28.42;;;;;;;;;;2081339;28;20188;-56
2021/08/11 03:12:00;;;;;;;46.05;26.05;;;;;;;;;;2081230;28;20667;-54
2021/08/11 03:13:00;;;;;;;54.10;24.60;;;;;;;;;;2089248;28;20228;-58
2021/08/11 03:14:01;;;;;;;55.20;26.65;;;;;;;;;;2089698;28;20219;-55
2021/08/11 03:15:02;;;;;;;53.47;28.17;;;;;;;;;;2081850;28;20183;-50
2021/08/11 03:16:04;;;;;;;53.33;27.27;;;;;;;;;;2073715;28;20193;-57
2021/08/11 03:17:09;;;;;;;75.32;29.50;;;;;;;;;;2081380;28;20247;-55
2021/08/11 03:18:10;;;;;;;59.58;27.30;;;;;;;;;;2081503;28;20637;-53
2021/08/11 03:19:11;;;;;;;57.08;27.67;;;;;;;;;;2081230;28;20174;-58
2021/08/11 03:20:13;;;;;;;90.30;31.67;;;;;;;;;;2077903;28;20169;-53
2021/08/11 03:21:13;;;;;;;61.72;30.13;;;;;;;;;;2081385;28;20164;-57
2021/08/11 03:22:14;;;;;;;56.22;29.30;;;;;;;;;;2098761;28;20167;-49
2021/08/11 03:23:16;;;;;;;69.22;28.60;;;;;;;;;;2089417;28;20179;-56
2021/08/11 03:24:18;;;;;;;81.95;31.63;;;;;;;;;;2081619;28;20207;-56
2021/08/11 03:25:19;;;;;;;64.60;27.33;;;;;;;;;;2089761;28;20333;-56
2021/08/11 03:26:19;;;;;;;45.85;25.77;;;;;;;;;;2097008;28;20651;-53
2021/08/11 03:27:20;;;;;;;56.50;27.73;;;;;;;;;;2081464;28;20579;-54
2021/08/11 03:28:20;;;;;;;78.65;32.45;;;;;;;;;;2081754;28;20207;-56
2021/08/11 03:29:20;;;;;;;71.18;30.33;;;;;;;;;;2081770;28;20180;-53
2021/08/11 03:30:21;;;;;;;67.68;28.90;;;;;;;;;;2085867;28;20167;-54
2021/08/11 03:31:22;;;;;;;51.42;26.15;;;;;;;;;;2077789;28;20181;-55
2021/08/11 03:32:22;;;;;;;60.88;30.08;;;;;;;;;;2073108;28;20219;-52
2021/08/11 03:33:23;;;;;;;63.30;30.92;;;;;;;;;;2073324;28;20230;-56
2021/08/11 03:34:23;;;;;;;71.38;32.35;;;;;;;;;;2073024;28;20183;-51
2021/08/11 03:35:26;;;;;;;62.15;30.35;;;;;;;;;;2073627;28;20185;-52
2021/08/11 03:36:28;;;;;;;64.63;28.88;;;;;;;;;;2076864;28;20188;-52
2021/08/11 03:37:32;;;;;;;65.35;31.05;;;;;;;;;;2081690;28;20177;-58
2021/08/11 03:38:35;;;;;;;70.90;31.83;;;;;;;;;;2073317;28;20263;-54
2021/08/11 03:39:36;;;;;;;72.53;33.65;;;;;;;;;;2073732;28;20165;-56
2021/08/11 03:40:37;;;;;;;64.05;32.50;;;;;;;;;;2069895;28;20165;-55
2021/08/11 03:41:37;;;;;;;63.47;32.30;;;;;;;;;;2089040;28;20168;-55
2021/08/11 03:42:37;;;;;;;74.70;32.83;;;;;;;;;;2096066;28;20644;-55
2021/08/11 03:43:38;;;;;;;66.88;31.42;;;;;;;;;;2086392;28;20171;-56
2021/08/11 03:44:39;;;;;;;71.13;32.03;;;;;;;;;;2080400;28;20715;-56
2021/08/11 03:45:41;;;;;;;65.53;29.98;;;;;;;;;;2081250;28;20199;-53
2021/08/11 03:46:41;;;;;;;48.38;26.80;;;;;;;;;;2081161;28;20169;-52
2021/08/11 03:47:42;;;;;;;64.63;31.00;;;;;;;;;;2081303;28;20183;-53
2021/08/11 03:48:43;;;;;;;65.70;30.42;;;;;;;;;;2089530;28;20255;-56
2021/08/11 03:49:46;;;;;;;79.53;30.88;;;;;;;;;;2075702;28;20161;-56
2021/08/11 03:50:47;;;;;;;63.10;29.70;;;;;;;;;;2080913;28;20271;-57
2021/08/11 03:51:48;;;;;;;70.32;30.42;;;;;;;;;;2080732;28;20200;-51
2021/08/11 03:52:49;;;;;;;72.95;31.67;;;;;;;;;;2081114;28;20180;-53
2021/08/11 03:53:53;;;;;;;50.33;26.88;;;;;;;;;;2074080;28;20260;-56
2021/08/11 03:54:54;;;;;;;120.43;33.20;;;;;;;;;;2081180;28;20183;-54
2021/08/11 03:55:54;;;;;;;57.38;30.35;;;;;;;;;;2089624;28;20664;-54
2021/08/11 03:56:55;;;;;;;67.30;28.92;;;;;;;;;;2082498;28;20263;-53
2021/08/11 03:57:55;;;;;;;113.53;34.97;;;;;;;;;;2073083;28;20177;-54
2021/08/11 03:58:55;;;;;;;61.53;28.23;;;;;;;;;;2074189;28;20231;-54
2021/08/11 03:59:55;;;;;;;86.55;31.25;;;;;;;;;;2088998;28;20175;-55
2021/08/11 04:00:56;;;;;;;58.88;27.13;;;;;;;;;;2072893;28;20716;-55
2021/08/11 04:01:56;;;;;;;188.48;44.53;;;;;;;;;;2080680;28;20173;-54
2021/08/11 04:02:56;;;;;;;97.38;32.97;;;;;;;;;;2089751;28;20164;-57
2021/08/11 04:03:57;;;;;;;92.72;32.97;;;;;;;;;;2090320;28;20192;-54
2021/08/11 04:04:57;;;;;;;52.03;28.38;;;;;;;;;;2090269;28;20184;-54
2021/08/11 04:05:57;;;;;;;97.40;34.53;;;;;;;;;;2098437;28;20266;-54
2021/08/11 04:06:57;;;;;;;61.35;30.30;;;;;;;;;;2093473;28;20219;-53
2021/08/11 04:07:57;;;;;;;66.90;30.40;;;;;;;;;;2096988;28;20224;-56
2021/08/11 04:08:58;;;;;;;68.78;31.70;;;;;;;;;;2095618;28;20192;-55
2021/08/11 04:09:58;;;;;;;76.07;34.13;;;;;;;;;;2104107;28;20190;-55
2021/08/11 04:10:58;;;;;;;81.30;33.83;;;;;;;;;;2100107;28;20175;-54
2021/08/11 04:11:58;;;;;;;125.13;36.17;;;;;;;;;;2106325;28;20163;-54
2021/08/11 04:12:58;;;;;;;104.35;36.30;;;;;;;;;;2101375;28;20549;-52
2021/08/11 04:13:59;;;;;;;135.35;36.15;;;;;;;;;;2097903;28;20172;-51
2021/08/11 04:14:59;;;;;;;88.20;33.53;;;;;;;;;;2104624;28;20232;-53
2021/08/11 04:15:59;;;;;;;106.25;34.38;;;;;;;;;;2100210;28;20230;-57
2021/08/11 04:17:00;;;;;;;178.85;41.50;;;;;;;;;;2097635;28;20699;-56
2021/08/11 04:18:00;;;;;;;126.30;38.30;;;;;;;;;;2097814;28;20201;-54
2021/08/11 04:19:00;;;;;;;97.32;33.92;;;;;;;;;;2101184;28;20183;-56
2021/08/11 04:20:00;;;;;;;81.15;30.42;;;;;;;;;;2088894;28;20175;-55
2021/08/11 04:21:01;;;;;;;91.82;33.50;;;;;;;;;;2081012;28;20172;-54
2021/08/11 04:22:01;;;;;;;115.07;34.10;;;;;;;;;;2080915;28;20237;-56
2021/08/11 04:23:01;;;;;;;134.55;35.17;;;;;;;;;;2081067;28;20171;-52
2021/08/11 04:24:01;;;;;;;94.18;32.65;;;;;;;;;;2089967;28;20659;-55
2021/08/11 04:25:02;;;;;;;100.80;32.78;;;;;;;;;;2089982;28;20176;-56
2021/08/11 04:26:03;;;;;;;98.43;32.70;;;;;;;;;;2089847;28;20304;-55
2021/08/11 04:27:03;;;;;;;46.13;25.80;;;;;;;;;;2088993;28;20251;-56
2021/08/11 04:28:03;;;;;;;68.40;31.10;;;;;;;;;;2089380;28;20217;-55
2021/08/11 04:29:04;;;;;;;73.35;30.60;;;;;;;;;;2096792;28;20545;-56
2021/08/11 04:30:04;;;;;;;59.80;27.73;;;;;;;;;;2102219;28;20572;-54
2021/08/11 04:31:04;;;;;;;74.53;30.63;;;;;;;;;;2085987;28;20191;-54
2021/08/11 04:32:05;;;;;;;93.50;30.50;;;;;;;;;;2091322;28;20751;-53
2021/08/11 04:33:05;;;;;;;55.25;26.35;;;;;;;;;;2098798;28;20603;-58
2021/08/11 04:34:05;;;;;;;49.97;25.70;;;;;;;;;;2102523;28;20541;-56
2021/08/11 04:35:06;;;;;;;76.78;31.70;;;;;;;;;;2086341;28;20263;-56
2021/08/11 04:36:06;;;;;;;109.47;31.77;;;;;;;;;;2085944;28;20195;-56
2021/08/11 04:37:06;;;;;;;75.25;26.90;;;;;;;;;;2101912;28;20894;-50
2021/08/11 04:38:07;;;;;;;69.60;26.13;;;;;;;;;;2095582;28;20214;-54
2021/08/11 04:39:07;;;;;;;122.03;36.08;;;;;;;;;;2103399;28;20163;-55
2021/08/11 04:40:08;;;;;;;71.35;27.02;;;;;;;;;;2102082;28;20171;-55
2021/08/11 04:41:11;;;;;;;83.05;29.35;;;;;;;;;;2099497;28;20558;-57
2021/08/11 04:42:11;;;;;;;126.90;34.58;;;;;;;;;;2098762;28;20166;-53
2021/08/11 04:43:12;;;;;;;62.60;26.95;;;;;;;;;;2103127;28;20257;-55
2021/08/11 04:44:12;;;;;;;80.45;30.80;;;;;;;;;;2102424;28;20187;-56
2021/08/11 04:45:12;;;;;;;81.82;30.67;;;;;;;;;;2101399;28;20158;-58
2021/08/11 04:46:13;;;;;;;84.43;30.00;;;;;;;;;;2096404;28;20162;-55
2021/08/11 04:47:14;;;;;;;106.45;31.23;;;;;;;;;;2100398;28;20590;-57
2021/08/11 04:48:14;;;;;;;119.97;32.72;;;;;;;;;;2099969;28;20170;-55
2021/08/11 04:49:14;;;;;;;127.72;36.92;;;;;;;;;;2104578;28;20166;-58
2021/08/11 04:50:14;;;;;;;74.03;29.05;;;;;;;;;;2101385;28;20647;-57
2021/08/11 04:51:15;;;;;;;118.18;33.80;;;;;;;;;;2101394;28;20193;-54
2021/08/11 04:52:15;;;;;;;106.43;30.70;;;;;;;;;;2092321;28;20663;-54
2021/08/11 04:53:15;;;;;;;62.70;27.70;;;;;;;;;;2088457;28;20193;-57
2021/08/11 04:54:16;;;;;;;106.72;34.08;;;;;;;;;;2095676;28;20170;-56
2021/08/11 04:55:16;;;;;;;81.75;33.13;;;;;;;;;;2097804;28;20162;-53
2021/08/11 04:56:18;;;;;;;81.97;32.72;;;;;;;;;;2103225;28;20296;-55
2021/08/11 04:57:19;;;;;;;82.88;30.35;;;;;;;;;;2101175;28;20182;-58
2021/08/11 04:58:19;;;;;;;94.60;33.58;;;;;;;;;;2101792;28;20174;-56
2021/08/11 04:59:19;;;;;;;122.07;36.60;;;;;;;;;;2100860;28;20182;-56
2021/08/11 05:00:19;;;;;;;100.97;36.28;;;;;;;;;;2095931;28;20252;-55
2021/08/11 05:01:19;;;;;;;204.07;43.60;;;;;;;;;;2098107;28;20529;-56
2021/08/11 05:02:20;;;;;;;102.97;33.78;;;;;;;;;;2100445;28;20178;-51
2021/08/11 05:03:20;;;;;;;95.63;35.00;;;;;;;;;;2101124;28;20163;-57
2021/08/11 05:04:20;;;;;;;94.43;36.65;;;;;;;;;;2101933;28;20162;-56
2021/08/11 05:05:20;;;;;;;92.60;33.53;;;;;;;;;;2100015;28;20236;-55
2021/08/11 05:06:20;;;;;;;129.15;41.15;;;;;;;;;;2092176;28;20205;-51
2021/08/11 05:07:21;;;;;;;93.47;35.80;;;;;;;;;;2093121;28;20678;-56
2021/08/11 05:08:21;;;;;;;96.43;38.72;;;;;;;;;;2093267;28;20180;-55
2021/08/11 05:09:21;;;;;;;114.82;44.67;;;;;;;;;;2095941;28;20741;-55
2021/08/11 05:10:21;;;;;;;117.93;47.80;;;;;;;;;;2098903;28;20620;-51
2021/08/11 05:11:22;;;;;;;123.88;45.08;;;;;;;;;;2096917;28;20193;-56
2021/08/11 05:12:23;;;;;;;96.72;36.90;;;;;;;;;;2096774;28;20167;-53
2021/08/11 05:13:24;;;;;;;82.57;34.55;;;;;;;;;;2093408;28;20554;-55
2021/08/11 05:14:24;;;;;;;142.25;39.90;;;;;;;;;;2099024;28;20274;-55
2021/08/11 05:15:24;;;;;;;91.15;32.80;;;;;;;;;;2098050;28;20167;-55
2021/08/11 05:16:25;;;;;;;65.32;34.90;;;;;;;;;;2096929;28;20721;-57
2021/08/11 05:17:25;;;;;;;101.15;33.13;;;;;;;;;;2102415;28;20229;-58
2021/08/11 05:18:25;;;;;;;60.80;30.73;;;;;;;;;;2103736;28;20162;-51
2021/08/11 05:19:25;;;;;;;87.38;34.95;;;;;;;;;;2100188;28;20618;-55
2021/08/11 05:20:26;;;;;;;106.35;34.65;;;;;;;;;;2101210;28;20173;-56
2021/08/11 05:21:26;;;;;;;171.18;41.47;;;;;;;;;;2099298;28;20624;-55
2021/08/11 05:22:26;;;;;;;334.35;57.53;;;;;;;;;;2095999;28;20191;-57
2021/08/11 05:23:27;;;;;;;90.63;34.97;;;;;;;;;;2101557;28;20609;-58
2021/08/11 05:24:27;;;;;;;75.40;33.08;;;;;;;;;;2100927;28;20174;-57
2021/08/11 05:25:28;;;;;;;89.13;38.15;;;;;;;;;;2106733;28;20201;-59
2021/08/11 05:26:28;;;;;;;73.53;36.22;;;;;;;;;;2095628;28;20185;-50
2021/08/11 05:27:28;;;;;;;66.22;34.22;;;;;;;;;;2103208;28;20201;-54
2021/08/11 05:28:28;;;;;;;72.55;35.72;;;;;;;;;;2102841;28;20182;-50
2021/08/11 05:29:31;;;;;;;146.07;41.85;;;;;;;;;;2100103;28;20173;-54
2021/08/11 05:30:31;;;;;;;112.43;38.75;;;;;;;;;;2097166;28;20262;-55
2021/08/11 05:31:31;;;;;;;124.25;38.20;;;;;;;;;;2091852;28;20183;-52
2021/08/11 05:32:32;;;;;;;106.82;38.10;;;;;;;;;;2104201;28;20170;-56
2021/08/11 05:33:32;;;;;;;88.15;37.03;;;;;;;;;;2100239;28;20175;-53
2021/08/11 05:34:32;;;;;;;82.70;36.83;;;;;;;;;;2094451;28;20225;-52
2021/08/11 05:35:32;;;;;;;105.93;40.08;;;;;;;;;;2097453;28;20163;-51
2021/08/11 05:36:32;;;;;;;321.02;61.40;;;;;;;;;;2092919;28;20198;-51
2021/08/11 05:37:33;;;;;;;126.15;43.58;;;;;;;;;;2097202;28;20689;-50
2021/08/11 05:38:34;;;;;;;203.98;49.83;;;;;;;;;;2098849;28;20632;-56
2021/08/11 05:39:34;;;;;;;79.32;39.42;;;;;;;;;;2101065;28;20619;-55
2021/08/11 05:40:34;;;;;;;172.55;46.42;;;;;;;;;;2095381;28;20197;-51
2021/08/11 05:41:35;;;;;;;188.40;53.42;;;;;;;;;;2093042;28;20688;-58
2021/08/11 05:42:35;;;;;;;202.68;45.78;;;;;;;;;;2090979;28;20175;-59
2021/08/11 05:43:35;;;;;;;168.15;46.10;;;;;;;;;;2104545;28;20269;-58
2021/08/11 05:44:35;;;;;;;299.58;55.78;;;;;;;;;;2098350;28;20671;-61
2021/08/11 05:45:36;;;;;;;82.00;35.22;;;;;;;;;;2094480;28;20193;-61
2021/08/11 05:46:36;;;;;;;218.60;51.05;;;;;;;;;;2091397;28;20188;-62
2021/08/11 05:47:36;;;;;;;116.22;40.55;;;;;;;;;;2086133;28;20178;-56
2021/08/11 05:48:36;;;;;;;143.98;46.65;;;;;;;;;;2086998;28;20176;-55
2021/08/11 05:49:37;;;;;;;75.28;34.35;;;;;;;;;;2096441;28;20560;-57
2021/08/11 05:50:37;;;;;;;102.10;41.13;;;;;;;;;;2086255;28;20546;-54
2021/08/11 05:51:38;;;;;;;158.18;42.33;;;;;;;;;;2081329;28;20517;-54
2021/08/11 05:52:38;;;;;;;182.82;44.05;;;;;;;;;;2097348;28;20179;-54
2021/08/11 05:53:38;;;;;;;129.93;41.97;;;;;;;;;;2098421;28;20182;-57
2021/08/11 05:54:39;;;;;;;90.47;36.78;;;;;;;;;;2095113;28;20190;-54
2021/08/11 05:55:39;;;;;;;112.25;40.30;;;;;;;;;;2092401;28;20193;-57
2021/08/11 05:56:39;;;;;;;148.13;42.20;;;;;;;;;;2094451;28;20176;-57
2021/08/11 05:57:40;;;;;;;223.73;49.22;;;;;;;;;;2092247;28;20538;-57
2021/08/11 05:58:40;;;;;;;141.20;41.95;;;;;;;;;;2094621;28;20187;-50
2021/08/11 05:59:40;;;;;;;97.40;34.10;;;;;;;;;;2092503;28;20563;-55
2021/08/11 06:00:40;;;;;;;77.53;33.40;;;;;;;;;;2096790;28;20180;-57